AirNav   Free Bose QuietComfort 20
 
 755 users online  

24PN A H Butz Downtown Allentown Heliport
Allentown, Pennsylvania, USA

GOING TO ALLENTOWN?


FAA INFORMATION EFFECTIVE 05 DECEMBER 2019

Location

FAA Identifier: 24PN
Lat/Long: 40-36-03.8000N 075-28-30.3000W
40-36.063333N 075-28.505000W
40.6010556,-75.4750833
(estimated)
Elevation: 456 ft. / 139 m (estimated)
Time zone: UTC -5 (UTC -4 during Daylight Saving Time)
Zip code: 18101

Heliport Operations

Heliport use: Private use. Permission required prior to landing
Activation date: 02/2007
Control tower: no
ARTCC: NEW YORK CENTER
FSS: WILLIAMSPORT FLIGHT SERVICE STATION
Attendance: 0800-1700
Wind indicator: lighted
Segmented circle: no
Lights: FOR PERIMETER AND FLOOD LGTS CALL 610-395-6871.

Heliport Communications

WX AWOS-3 at XLL (1.9 nm S): 127.875 (610-231-3111)
WX ASOS at ABE (3 nm NE): PHONE 610-266-3579
WX AWOS-3 at UKT (11 nm SE): 119.475 (215-538-7610)
WX AWOS-3 at CKZ (15 nm SE): 126.325 (215-257-7291)
WX AWOS-3PT at 22N (18 nm NW): 119.350 (570-386-3423)

Nearby radio navigation aids

VOR radial/distance  VOR name  Freq  Var
FJCr197/7.6ALLENTOWN VORTAC117.5010W
ETXr092/9.6EAST TEXAS VOR/DME110.2009W
PTWr019/23.1POTTSTOWN VORTAC116.5009W
BWZr259/32.0BROADWAY VOR/DME114.2011W
ARDr319/33.3YARDLEY VOR/DME108.2010W
SBJr282/33.4SOLBERG VOR/DME112.9010W
STWr240/36.3STILLWATER VOR/DME109.6011W

 
NDB name  Hdg/Dist  Freq  Var  ID
AMBLER355/29.827512WING .. -. --.

Heliport Services

Runway Information

Helipad H1

Dimensions: 45 x 45 ft. / 14 x 14 m
Surface: concrete
Runway edge lights: PERI
AND FLOOD LGTS.
Operational restrictions: ELEVATED HELIDECK.
Latitude: 40-36.063333N
Longitude: 075-28.505000W
Elevation: 456.0 ft.
Traffic pattern: leftleft

Heliport Ownership and Management from official FAA records

Ownership: Privately-owned
Owner: A. H. BUTZ INC
840 HAMILTON ST SUITE 600
ALLENTOWN, PA 18101
Phone 610-395-6871
Manager: ANNE EPISCOPO
840 HAMILTON ST SUITE 600
ALLENTOWN, PA 18101
Phone 610-395-6871

Additional Remarks

MAX ROTOR DIAMETER IS 45 FT.
MAX GROSS WEIGHT IS 15,000 LBS.
WRITTEN PMSN REQD PRIOR TO USING THE HELIPAD.
EMERG SVC HEL CTC MGR 610-396-6871 FOR DETAILS.
USE PRIM APCH/DEP PATH OF 040/220 DEGS FOR NOISE ABATEMENT AND GOOD COMMUNITY RELATIONS. IF THERE IS AN ISSUE OF SAFETY OR CRITICAL MISSION NEED, APCH/DEP PATH 230/050 ALSO AVBL.
THE PERIMETER SAFETY FENCE AND LIGHTS ARE SLIGHTLY HIGHER THAN THE PAD; EXERCISE CARE DURING MANUVERING TO, FM AND ON THE PAD.
FOR CD CTC ALLENTOWN APCH AT 800-728-6322.

Instrument Procedures

There are no published instrument procedures at 24PN.

Some nearby airports with instrument procedures:

KXLL - Allentown Queen City Municipal Airport (2 nm S)
KABE - Lehigh Valley International Airport (3 nm NE)
KUKT - Quakertown Airport (11 nm SE)
N43 - Braden Airpark (14 nm NE)
KCKZ - Pennridge Airport (15 nm SE)
22N - Jake Arner Memorial Airport (18 nm NW)
 
Loc | Ops | Rwys | IFR | FBO | Links
Com | Nav | Svcs | Stats | Notes
Area around 24PN (A H Butz Downtown Allentown Heliport)
 
Road maps at: MapQuest Bing Google
 
Aerial photo
No photo
 
Sectional chart

 
Airport distance calculator
Flying to A H Butz Downtown Allentown Heliport? Find the distance to fly.

From to 24PN

Sunrise and sunset
Times for 13-Dec-2019
 Local
(UTC-5)
 Zulu
(UTC)
Morning civil twilight06:4711:47
Sunrise07:1812:18
Sunset16:3421:34
Evening civil twilight17:0522:05

Current date and time
Zulu (UTC)  13-Dec-2019 12:37:55
Local (UTC-5)  13-Dec-2019 07:37:55
 
METAR
KXLL 
2nm S 
131215Z AUTO 31005KT 10SM BKN033 OVC055 00/M05 A3042 RMK AO2
KABE 
3nm N 
131151Z 08005KT 10SM BKN036 OVC055 00/M07 A3041 RMK AO2 SLP301 T00001067 10000 21022 58028
KUKT 
11nm SE 
131220Z AUTO 00000KT 10SM BKN030 OVC050 M01/M05 A3040 RMK A01
KCKZ 
15nm SE 
131215Z AUTO 07008KT 10SM OVC032 00/M04 A3040 RMK AO2
K22N 
18nm NW 
131215Z AUTO 00000KT 10SM OVC031 M01/M03 A3040 RMK AO2
TAF
KABE 
3nm N 
131128Z 1312/1412 VRB03KT P6SM OVC035 FM131400 VRB03KT P6SM OVC025 FM131600 VRB03KT P6SM VCSH OVC015 FM131900 08005KT 3SM -RA BR OVC008 FM140100 07005KT 2SM RA BR OVC003 FM140600 05005KT 2SM +RA BR OVC003
NOTAMs
Click for the latest NOTAMs
NOTAMs are issued by the DoD/FAA and will open in a separate window not controlled by AirNav.

 

 
 

Would you like to see your business listed on this page?

 If your business provides an interesting product or service to pilots, flight crews, aircraft, or users of the A H Butz Downtown Allentown Heliport, you should consider listing it here.  To start the listing process, click on the button below
 
Add a business
 

Other Pages about A H Butz Downtown Allentown Heliport

Update a link
 
Copyright © AirNav, LLC. All rights reserved. Privacy Policy  Contact